Time;durP1;ratioP1;P1;durP2;ratioP2;P2;SDS_P1;SDS_P2;PMS_P1;PMS_P2;Temp;Humidity;BMP_temperature;BMP_pressure;BME280_temperature;BME280_humidity;BME280_pressure;Samples;Min_cycle;Max_cycle;Signal;HPM_P1;HPM_P2
2021/05/23 00:02:47;;;;;;;15.98;7.95;;;17.20;72.20;;;;;;5091752;28;20518;-73
2021/05/23 00:05:51;;;;;;;14.43;7.13;;;17.30;71.40;;;;;;5091492;28;20043;-73
2021/05/23 00:08:55;;;;;;;15.40;6.55;;;17.30;71.10;;;;;;5091989;28;20043;-73
2021/05/23 00:11:59;;;;;;;16.05;6.50;;;17.30;70.00;;;;;;5091505;28;20051;-74
2021/05/23 00:15:06;;;;;;;24.05;6.25;;;17.30;70.40;;;;;;5093721;28;20059;-72
2021/05/23 00:18:12;;;;;;;15.32;6.38;;;17.40;69.00;;;;;;5095407;28;20050;-73
2021/05/23 00:21:20;;;;;;;10.48;4.97;;;17.20;69.00;;;;;;5095102;28;20047;-73
2021/05/23 00:24:24;;;;;;;16.42;6.65;;;17.30;68.20;;;;;;5094999;28;20046;-72
2021/05/23 00:27:30;;;;;;;19.52;10.00;;;17.20;69.20;;;;;;5094724;28;20039;-72
2021/05/23 00:30:40;;;;;;;21.60;8.32;;;17.10;69.10;;;;;;5093735;28;20375;-72
2021/05/23 00:33:44;;;;;;;15.45;6.88;;;17.00;70.70;;;;;;5095473;28;20240;-72
2021/05/23 00:36:51;;;;;;;14.75;6.47;;;17.00;70.00;;;;;;5094677;28;20059;-73
2021/05/23 00:39:55;;;;;;;13.95;6.30;;;17.00;69.50;;;;;;5093489;28;20059;-73
2021/05/23 00:43:00;;;;;;;12.93;5.70;;;17.00;69.60;;;;;;5094737;28;20499;-73
2021/05/23 00:46:04;;;;;;;12.55;5.28;;;17.00;68.20;;;;;;5095053;28;20043;-72
2021/05/23 00:49:09;;;;;;;11.40;5.55;;;17.10;67.20;;;;;;5094370;28;20047;-73
2021/05/23 00:52:13;;;;;;;14.40;5.40;;;17.10;66.60;;;;;;5094488;28;20039;-73
2021/05/23 00:55:19;;;;;;;12.23;5.72;;;17.10;66.60;;;;;;5094619;28;20411;-72
2021/05/23 00:58:23;;;;;;;10.23;4.82;;;17.20;68.20;;;;;;5094181;28;20047;-73
2021/05/23 01:01:46;;;;;;;12.43;5.32;;;17.20;68.50;;;;;;5094469;28;20048;-73
2021/05/23 01:04:50;;;;;;;12.63;5.38;;;17.20;69.20;;;;;;5093413;28;20044;-73
2021/05/23 01:07:55;;;;;;;12.45;5.05;;;17.10;69.60;;;;;;5094315;28;20120;-73
2021/05/23 01:11:28;;;;;;;12.68;4.80;;;17.10;69.70;;;;;;5093026;28;20051;-73
2021/05/23 01:14:52;;;;;;;16.35;4.50;;;16.90;70.10;;;;;;5093725;28;20047;-73
2021/05/23 01:18:03;;;;;;;6.53;4.68;;;16.80;70.30;;;;;;5094069;28;20077;-72
2021/05/23 01:21:08;;;;;;;12.67;4.57;;;16.80;70.60;;;;;;5094261;28;20490;-72
2021/05/23 01:24:38;;;;;;;10.60;5.65;;;16.70;70.80;;;;;;5093910;28;20510;-72
2021/05/23 01:27:45;;;;;;;15.00;7.45;;;16.80;71.00;;;;;;5093413;28;20039;-72
2021/05/23 01:30:51;;;;;;;17.75;6.68;;;16.70;70.90;;;;;;5093389;28;20043;-72
2021/05/23 01:33:58;;;;;;;20.85;9.23;;;16.60;71.10;;;;;;5093657;28;20047;-71
2021/05/23 01:37:11;;;;;;;12.88;7.88;;;16.60;70.70;;;;;;5093479;28;20046;-72
2021/05/23 01:40:18;;;;;;;13.77;7.20;;;16.60;71.20;;;;;;5093441;28;20043;-73
2021/05/23 01:43:23;;;;;;;17.40;6.78;;;16.60;71.80;;;;;;5093861;28;20068;-72
2021/05/23 01:46:28;;;;;;;15.73;6.20;;;16.50;71.90;;;;;;5093806;28;20047;-72
2021/05/23 01:49:32;;;;;;;16.15;7.15;;;16.50;71.70;;;;;;5092577;28;20043;-72
2021/05/23 01:52:45;;;;;;;11.07;5.60;;;16.40;72.20;;;;;;5092894;28;20043;-72
2021/05/23 01:55:49;;;;;;;16.08;6.32;;;16.40;70.80;;;;;;5093202;28;20216;-72
2021/05/23 01:58:53;;;;;;;14.05;5.22;;;16.40;72.30;;;;;;5092986;28;20498;-71
2021/05/23 02:01:59;;;;;;;14.30;5.10;;;16.30;70.90;;;;;;5093113;28;20059;-72
2021/05/23 02:05:06;;;;;;;11.85;4.30;;;16.20;71.90;;;;;;5092874;28;20055;-73
2021/05/23 02:08:12;;;;;;;7.35;4.18;;;16.20;70.10;;;;;;5092789;28;20035;-73
2021/05/23 02:11:16;;;;;;;9.80;3.75;;;16.00;71.00;;;;;;5092643;28;20051;-72
2021/05/23 02:14:20;;;;;;;7.93;3.70;;;16.10;69.30;;;;;;5092687;28;20047;-72
2021/05/23 02:17:24;;;;;;;5.68;3.55;;;16.00;69.00;;;;;;5092687;28;20044;-72
2021/05/23 02:20:30;;;;;;;6.25;3.28;;;16.00;69.60;;;;;;5092541;28;20032;-70
2021/05/23 02:23:34;;;;;;;9.88;4.30;;;16.00;69.90;;;;;;5092981;28;20040;-72
2021/05/23 02:26:38;;;;;;;8.90;3.92;;;16.10;70.70;;;;;;5092874;28;20043;-71
2021/05/23 02:29:42;;;;;;;8.98;4.22;;;16.30;70.60;;;;;;5092025;28;20082;-72
2021/05/23 02:32:46;;;;;;;11.38;4.45;;;16.30;71.30;;;;;;5092246;28;20037;-71
2021/05/23 02:35:44;;;;;;;13.38;6.05;;;16.20;71.50;;;;;;5092596;28;20051;-72
2021/05/23 02:38:48;;;;;;;9.73;5.38;;;16.20;70.90;;;;;;5092258;28;20051;-71
2021/05/23 02:41:52;;;;;;;9.73;5.28;;;16.10;70.90;;;;;;5091913;28;20383;-72
2021/05/23 02:44:56;;;;;;;12.13;5.50;;;16.20;69.10;;;;;;5092045;28;20040;-72
2021/05/23 02:48:01;;;;;;;14.02;6.00;;;16.20;69.20;;;;;;5092267;28;20046;-72
2021/05/23 02:51:05;;;;;;;10.65;5.70;;;16.30;71.40;;;;;;5092305;28;20039;-72
2021/05/23 02:54:10;;;;;;;13.60;5.20;;;16.20;71.30;;;;;;5092259;28;20134;-72
2021/05/23 02:57:15;;;;;;;10.90;5.43;;;16.20;71.50;;;;;;5091691;28;20059;-72
2021/05/23 03:00:21;;;;;;;13.93;4.50;;;16.20;72.20;;;;;;5091764;28;20043;-72
2021/05/23 03:03:25;;;;;;;9.80;4.93;;;16.20;72.80;;;;;;5091767;28;20047;-72
2021/05/23 03:06:29;;;;;;;16.42;5.32;;;16.10;73.30;;;;;;5091052;28;20545;-72
2021/05/23 03:09:33;;;;;;;10.88;5.32;;;16.10;73.30;;;;;;5091990;28;20058;-72
2021/05/23 03:12:38;;;;;;;9.70;5.50;;;16.00;73.50;;;;;;5092634;28;20055;-73
2021/05/23 03:15:42;;;;;;;14.40;4.90;;;15.90;73.80;;;;;;5092529;28;20050;-72
2021/05/23 03:18:47;;;;;;;10.32;4.95;;;15.90;74.20;;;;;;5092350;28;20047;-73
2021/05/23 03:21:51;;;;;;;11.52;5.20;;;15.90;73.10;;;;;;5092592;28;20047;-72
2021/05/23 03:24:55;;;;;;;14.30;5.72;;;15.90;73.90;;;;;;5092864;28;20047;-72
2021/05/23 03:28:00;;;;;;;9.32;6.15;;;15.90;74.30;;;;;;5092015;28;20043;-73
2021/05/23 03:31:04;;;;;;;10.15;5.47;;;15.90;74.30;;;;;;5092881;28;20047;-73
2021/05/23 03:34:08;;;;;;;16.20;5.13;;;15.90;73.70;;;;;;5091141;28;20035;-73
2021/05/23 03:37:14;;;;;;;10.50;4.60;;;15.90;73.20;;;;;;5091070;28;20058;-72
2021/05/23 03:40:19;;;;;;;8.13;4.45;;;15.80;73.10;;;;;;5091704;28;20039;-74
2021/05/23 03:43:23;;;;;;;11.57;3.72;;;15.60;72.50;;;;;;5092241;28;20051;-72
2021/05/23 03:46:27;;;;;;;6.15;4.00;;;15.70;72.10;;;;;;5092624;28;20043;-72
2021/05/23 03:49:31;;;;;;;9.75;3.78;;;15.60;71.80;;;;;;5095358;28;20047;-73
2021/05/23 03:52:36;;;;;;;5.57;3.70;;;15.70;71.30;;;;;;5095726;28;20043;-71
2021/05/23 03:55:41;;;;;;;7.97;3.30;;;15.70;70.80;;;;;;5096565;28;20047;-73
2021/05/23 03:58:45;;;;;;;10.00;3.08;;;15.80;70.30;;;;;;5095409;28;20047;-72
2021/05/23 04:01:49;;;;;;;6.40;3.60;;;15.90;70.90;;;;;;5096237;28;20047;-72
2021/05/23 04:04:57;;;;;;;9.90;3.33;;;16.00;69.60;;;;;;5096297;28;20043;-73
2021/05/23 04:08:03;;;;;;;6.70;2.90;;;15.80;69.90;;;;;;5097451;28;20035;-72
2021/05/23 04:11:14;;;;;;;12.38;4.22;;;15.80;70.50;;;;;;5096034;28;20055;-73
2021/05/23 04:14:18;;;;;;;;;;;15.90;70.70;;;;;;5096631;28;20043;-72
2021/05/23 04:17:22;;;;;;;14.15;3.72;;;15.80;71.50;;;;;;5107556;28;20291;-73
2021/05/23 04:20:28;;;;;;;8.43;3.95;;;16.00;71.70;;;;;;5096104;28;20031;-73
2021/05/23 04:23:32;;;;;;;8.25;3.88;;;16.10;71.10;;;;;;5096373;28;20063;-73
2021/05/23 04:26:36;;;;;;;7.47;3.45;;;16.20;70.80;;;;;;5096198;28;20039;-71
2021/05/23 04:29:39;;;;;;;5.35;3.25;;;16.00;70.50;;;;;;5094736;28;20043;-72
2021/05/23 04:32:43;;;;;;;6.78;3.10;;;16.00;71.00;;;;;;5096329;28;20521;-73
2021/05/23 04:35:47;;;;;;;9.90;3.35;;;16.00;70.80;;;;;;5095811;28;20059;-73
2021/05/23 04:38:55;;;;;;;6.28;3.08;;;16.10;71.10;;;;;;5095053;28;20035;-73
2021/05/23 04:41:59;;;;;;;12.27;4.25;;;16.70;69.60;;;;;;5096454;28;20510;-73
2021/05/23 04:45:05;;;;;;;9.77;3.20;;;17.70;65.90;;;;;;5095735;28;20047;-72
2021/05/23 04:48:10;;;;;;;8.63;3.50;;;18.60;64.10;;;;;;5094551;28;20039;-72
2021/05/23 04:51:14;;;;;;;6.45;3.28;;;19.30;62.70;;;;;;5096377;28;20047;-72
2021/05/23 04:54:18;;;;;;;11.48;4.40;;;19.60;60.30;;;;;;5094595;28;20043;-73
2021/05/23 04:57:22;;;;;;;9.45;4.22;;;19.90;60.00;;;;;;5095889;28;20047;-71
2021/05/23 05:00:26;;;;;;;12.27;4.75;;;20.20;59.00;;;;;;5093876;28;20039;-72
2021/05/23 05:03:12;;;;;;;7.72;4.03;;;20.30;58.80;;;;;;5097643;28;20059;-73
2021/05/23 05:06:17;;;;;;;22.33;4.13;;;20.30;59.80;;;;;;5094995;28;20047;-71
2021/05/23 05:09:21;;;;;;;9.18;3.42;;;20.10;59.90;;;;;;5095677;28;20043;-72
2021/05/23 05:12:25;;;;;;;7.28;3.47;;;20.20;60.20;;;;;;5095469;28;20055;-72
2021/05/23 05:15:29;;;;;;;10.88;3.92;;;20.40;57.90;;;;;;5094907;28;20055;-71
2021/05/23 05:18:35;;;;;;;8.90;3.53;;;20.50;58.20;;;;;;5094396;28;20043;-73
2021/05/23 05:21:42;;;;;;;13.57;4.65;;;20.70;59.40;;;;;;5094061;28;20043;-72
2021/05/23 05:24:45;;;;;;;13.63;4.32;;;20.80;59.70;;;;;;5094357;28;20039;-73
2021/05/23 05:27:49;;;;;;;14.73;4.68;;;20.90;60.00;;;;;;5093817;28;20506;-72
2021/05/23 05:30:53;;;;;;;15.55;5.43;;;21.10;59.60;;;;;;5093970;28;20043;-73
2021/05/23 05:33:57;;;;;;;21.23;5.30;;;21.20;58.90;;;;;;5093874;28;20075;-73
2021/05/23 05:37:04;;;;;;;15.95;6.97;;;21.40;58.90;;;;;;5092863;28;20047;-72
2021/05/23 05:40:08;;;;;;;20.00;6.35;;;21.60;58.50;;;;;;5094066;28;20054;-71
2021/05/23 05:43:13;;;;;;;9.45;5.40;;;21.70;58.00;;;;;;5094378;28;20035;-72
2021/05/23 05:46:19;;;;;;;18.45;5.65;;;21.90;57.40;;;;;;5093346;28;20051;-69
2021/05/23 05:49:22;;;;;;;19.17;6.03;;;22.10;56.20;;;;;;5093534;28;20229;-69
2021/05/23 05:52:27;;;;;;;12.52;4.93;;;22.20;55.30;;;;;;5093718;28;20407;-69
2021/05/23 05:55:31;;;;;;;11.25;4.40;;;22.50;55.20;;;;;;5093265;28;20043;-70
2021/05/23 05:58:36;;;;;;;11.38;3.22;;;22.70;52.10;;;;;;5093232;28;20526;-68
2021/05/23 06:01:42;;;;;;;12.60;3.72;;;22.80;50.30;;;;;;5092695;28;20035;-69
2021/05/23 06:04:46;;;;;;;10.25;3.10;;;23.10;48.70;;;;;;5092787;28;20047;-68
2021/05/23 06:07:55;;;;;;;7.63;3.58;;;23.20;48.10;;;;;;5092936;28;20059;-68
2021/05/23 06:10:59;;;;;;;13.43;4.28;;;23.30;47.70;;;;;;5090813;28;20078;-69
2021/05/23 06:14:03;;;;;;;12.48;4.38;;;23.40;48.80;;;;;;5091575;28;20050;-68
2021/05/23 06:17:07;;;;;;;12.52;4.00;;;23.70;47.90;;;;;;5092268;28;20047;-68
2021/05/23 06:20:13;;;;;;;12.00;4.22;;;23.80;47.90;;;;;;5091555;28;20035;-67
2021/05/23 06:23:17;;;;;;;8.70;4.20;;;23.90;48.80;;;;;;5092171;28;20059;-69
2021/05/23 06:26:24;;;;;;;10.93;4.20;;;24.00;48.30;;;;;;5092610;28;20055;-68
2021/05/23 06:29:28;;;;;;;14.35;4.53;;;24.20;48.40;;;;;;5091982;28;20063;-67
2021/05/23 06:32:32;;;;;;;19.38;5.28;;;24.50;48.30;;;;;;5092543;28;20506;-69
2021/05/23 06:35:36;;;;;;;12.52;5.60;;;24.80;48.10;;;;;;5091876;28;20047;-69
2021/05/23 06:38:41;;;;;;;13.65;6.35;;;24.90;50.00;;;;;;5079439;28;20506;-69
2021/05/23 06:41:44;;;;;;;15.95;6.43;;;25.20;50.60;;;;;;5092147;28;20050;-68
2021/05/23 06:44:48;;;;;;;9.27;5.13;;;25.30;50.20;;;;;;5090707;28;20043;-68
2021/05/23 06:47:52;;;;;;;10.55;4.60;;;25.40;51.10;;;;;;5092263;28;20050;-69
2021/05/23 06:50:57;;;;;;;8.77;4.40;;;25.60;49.90;;;;;;5091372;28;20031;-67
2021/05/23 06:54:01;;;;;;;10.13;4.47;;;25.80;48.70;;;;;;5092143;28;20047;-69
2021/05/23 06:57:07;;;;;;;14.10;4.07;;;26.00;46.90;;;;;;5091553;28;20047;-67
2021/05/23 07:00:12;;;;;;;10.98;4.30;;;26.20;45.10;;;;;;5091367;28;20035;-69
2021/05/23 07:03:16;;;;;;;9.20;3.85;;;26.20;45.30;;;;;;5079653;28;20051;-69
2021/05/23 07:06:20;;;;;;;7.22;3.95;;;26.30;46.30;;;;;;5091227;28;20044;-68
2021/05/23 07:09:24;;;;;;;10.50;3.78;;;26.30;45.30;;;;;;5091565;28;20066;-69
2021/05/23 07:12:28;;;;;;;9.07;3.60;;;26.20;46.80;;;;;;5090639;28;20050;-68
2021/05/23 07:15:32;;;;;;;15.15;3.80;;;26.40;46.50;;;;;;5091728;28;20537;-67
2021/05/23 07:18:36;;;;;;;8.40;2.97;;;26.60;44.80;;;;;;5091952;28;20052;-68
2021/05/23 07:21:40;;;;;;;9.05;2.67;;;26.80;45.30;;;;;;5090671;28;20422;-68
2021/05/23 07:24:44;;;;;;;13.02;2.72;;;27.10;45.60;;;;;;5091464;28;20047;-68
2021/05/23 07:27:49;;;;;;;10.63;2.78;;;27.20;44.60;;;;;;5091692;28;20062;-69
2021/05/23 07:30:53;;;;;;;7.60;2.65;;;27.30;42.90;;;;;;5079182;28;20055;-68
2021/05/23 07:33:58;;;;;;;13.85;2.78;;;27.40;42.70;;;;;;5091742;28;20047;-68
2021/05/23 07:37:02;;;;;;;7.10;2.10;;;27.40;42.00;;;;;;5091253;28;20423;-69
2021/05/23 07:40:06;;;;;;;7.40;2.35;;;27.30;41.60;;;;;;5091235;28;20040;-68
2021/05/23 07:43:11;;;;;;;14.77;2.38;;;27.30;42.30;;;;;;5091264;28;20478;-69
2021/05/23 07:46:15;;;;;;;5.97;2.20;;;27.30;42.80;;;;;;5091830;28;20044;-69
2021/05/23 07:49:19;;;;;;;8.18;2.80;;;27.40;43.30;;;;;;5091914;28;20506;-67
2021/05/23 07:52:24;;;;;;;8.48;3.05;;;27.50;42.20;;;;;;5091475;28;20043;-67
2021/05/23 07:55:30;;;;;;;5.25;2.03;;;27.60;42.40;;;;;;5092145;28;20047;-67
2021/05/23 07:58:34;;;;;;;7.57;3.15;;;27.70;42.50;;;;;;5091212;28;20051;-67
2021/05/23 08:01:39;;;;;;;6.32;3.00;;;27.90;43.20;;;;;;5091562;28;20039;-67
2021/05/23 08:04:43;;;;;;;7.95;2.38;;;28.00;41.30;;;;;;5091499;28;20056;-68
2021/05/23 08:07:47;;;;;;;13.10;3.13;;;28.10;41.00;;;;;;5091183;28;20044;-69
2021/05/23 08:10:51;;;;;;;9.77;2.95;;;28.30;41.80;;;;;;5091626;28;20051;-69
2021/05/23 08:13:54;;;;;;;8.07;2.58;;;28.30;40.90;;;;;;5091398;28;20043;-67
2021/05/23 08:16:58;;;;;;;14.45;3.17;;;28.30;40.90;;;;;;5091080;28;20051;-68
2021/05/23 08:20:03;;;;;;;9.73;2.95;;;28.30;41.40;;;;;;5091350;28;20383;-68
2021/05/23 08:23:07;;;;;;;9.20;3.08;;;28.40;41.20;;;;;;5091151;28;20047;-69
2021/05/23 08:26:11;;;;;;;12.50;3.38;;;28.40;41.00;;;;;;5091673;28;20051;-68
2021/05/23 08:29:15;;;;;;;8.40;2.60;;;28.50;40.70;;;;;;5090725;28;20058;-68
2021/05/23 08:32:22;;;;;;;9.05;3.17;;;28.50;41.90;;;;;;5090065;28;20047;-69
2021/05/23 08:35:27;;;;;;;9.27;2.70;;;28.60;40.90;;;;;;5091747;28;20040;-68
2021/05/23 08:38:31;;;;;;;15.23;2.90;;;28.40;41.50;;;;;;5094211;28;20399;-68
2021/05/23 08:41:38;;;;;;;10.07;2.55;;;28.20;42.20;;;;;;5094097;28;20035;-67
2021/05/23 08:44:42;;;;;;;7.55;2.83;;;28.00;41.40;;;;;;5094412;28;20395;-67
2021/05/23 08:47:47;;;;;;;12.85;2.65;;;28.00;42.10;;;;;;5094757;28;20039;-68
2021/05/23 08:50:51;;;;;;;8.65;2.33;;;28.00;42.30;;;;;;5094044;28;20063;-68
2021/05/23 08:53:55;;;;;;;8.52;3.15;;;28.20;41.90;;;;;;5094575;28;20047;-69
2021/05/23 08:57:01;;;;;;;12.52;3.47;;;28.40;41.90;;;;;;5094041;28;20055;-68
2021/05/23 09:00:07;;;;;;;12.27;3.20;;;28.50;41.40;;;;;;5093253;28;20043;-69
2021/05/23 09:03:15;;;;;;;6.45;2.53;;;28.40;40.30;;;;;;5094079;28;20062;-68
2021/05/23 09:06:30;;;;;;;10.00;3.00;;;28.30;41.10;;;;;;5093048;28;20043;-68
2021/05/23 09:09:45;;;;;;;10.55;2.78;;;28.40;41.10;;;;;;5093545;28;20043;-69
2021/05/23 09:12:50;;;;;;;13.75;3.13;;;28.40;40.90;;;;;;5095073;28;20050;-68
2021/05/23 09:16:05;;;;;;;11.77;3.15;;;28.30;40.70;;;;;;5092655;28;20391;-68
2021/05/23 09:19:09;;;;;;;6.78;2.60;;;28.00;41.50;;;;;;5094430;28;20054;-68
2021/05/23 09:22:17;;;;;;;13.77;3.15;;;28.10;42.80;;;;;;5092750;28;20035;-69
2021/05/23 09:25:33;;;;;;;17.20;2.90;;;28.00;42.30;;;;;;5092750;28;20051;-69
2021/05/23 09:28:39;;;;;;;12.55;3.03;;;27.80;42.70;;;;;;5093162;28;20102;-69
2021/05/23 09:31:57;;;;;;;10.82;2.85;;;27.60;42.20;;;;;;5093330;28;20039;-67
2021/05/23 09:35:05;;;;;;;7.25;2.47;;;27.50;42.60;;;;;;5093837;28;20691;-69
2021/05/23 09:38:10;;;;;;;22.25;4.70;;;27.50;43.40;;;;;;5092191;28;20395;-70
2021/05/23 09:41:28;;;;;;;9.23;2.67;;;27.50;42.70;;;;;;5093313;28;20039;-68
2021/05/23 09:44:32;;;;;;;7.85;2.22;;;27.70;43.60;;;;;;5092593;28;20051;-69
2021/05/23 09:47:36;;;;;;;8.75;2.35;;;27.90;42.70;;;;;;5092576;28;20107;-68
2021/05/23 09:50:42;;;;;;;4.15;2.05;;;28.00;42.10;;;;;;5093120;28;20042;-69
2021/05/23 09:53:58;;;;;;;7.35;2.50;;;28.10;42.40;;;;;;5092654;28;20031;-71
2021/05/23 09:57:12;;;;;;;13.75;2.50;;;28.30;43.20;;;;;;5091674;28;20075;-69
2021/05/23 10:00:17;;;;;;;7.55;2.55;;;28.40;43.40;;;;;;5093260;28;20454;-69
2021/05/23 10:03:26;;;;;;;6.25;2.70;;;28.40;42.80;;;;;;5093169;28;20043;-69
2021/05/23 10:06:35;;;;;;;13.18;2.13;;;28.50;42.80;;;;;;5092558;28;20417;-69
2021/05/23 10:09:40;;;;;;;13.10;2.20;;;28.60;44.50;;;;;;5091372;28;20485;-68
2021/05/23 10:12:45;;;;;;;11.38;3.00;;;28.60;45.20;;;;;;5092286;28;20514;-69
2021/05/23 10:15:49;;;;;;;11.75;2.50;;;28.70;44.60;;;;;;5092233;28;20055;-68
2021/05/23 10:18:57;;;;;;;17.77;2.65;;;28.70;43.70;;;;;;5091978;28;20043;-69
2021/05/23 10:22:04;;;;;;;20.15;3.22;;;28.70;44.30;;;;;;5091203;28;20039;-69
2021/05/23 10:25:11;;;;;;;13.60;3.03;;;28.70;44.40;;;;;;5091951;28;20050;-72
2021/05/23 10:28:17;;;;;;;13.90;2.63;;;28.60;42.90;;;;;;5092119;28;20047;-69
2021/05/23 10:32:01;;;;;;;18.92;2.65;;;28.60;42.90;;;;;;5092010;28;20047;-69
2021/05/23 10:35:32;;;;;;;11.20;2.38;;;28.50;43.40;;;;;;5091138;28;20046;-69
2021/05/23 10:38:36;;;;;;;9.65;2.55;;;28.50;43.00;;;;;;5091130;28;20059;-69
2021/05/23 10:41:41;;;;;;;13.80;2.50;;;28.50;43.40;;;;;;5090975;28;20051;-67
2021/05/23 10:44:50;;;;;;;5.13;2.00;;;28.40;43.30;;;;;;5091833;28;20502;-69
2021/05/23 10:47:55;;;;;;;9.63;2.33;;;28.40;42.60;;;;;;5091950;28;20046;-69
2021/05/23 10:51:13;;;;;;;9.55;1.95;;;28.50;43.30;;;;;;5091285;28;20415;-68
2021/05/23 10:54:17;;;;;;;9.63;2.20;;;28.40;43.00;;;;;;5091335;28;20505;-69
2021/05/23 10:57:25;;;;;;;8.40;2.05;;;28.40;43.90;;;;;;5091109;28;20047;-73
2021/05/23 11:00:32;;;;;;;8.35;2.65;;;28.40;43.40;;;;;;5090391;28;20047;-70
2021/05/23 11:03:36;;;;;;;7.88;2.20;;;28.40;43.60;;;;;;5091454;28;20059;-69
2021/05/23 11:06:42;;;;;;;9.02;2.20;;;28.40;43.40;;;;;;5091388;28;20035;-68
2021/05/23 11:09:47;;;;;;;6.35;2.08;;;28.40;43.40;;;;;;5090547;28;20039;-69
2021/05/23 11:12:52;;;;;;;14.40;2.88;;;28.40;43.70;;;;;;5091699;28;20536;-69
2021/05/23 11:16:08;;;;;;;12.75;2.75;;;28.40;44.30;;;;;;5090693;28;20043;-70
2021/05/23 11:19:13;;;;;;;6.47;2.22;;;28.40;44.50;;;;;;5091155;28;20051;-69
2021/05/23 11:22:17;;;;;;;9.10;2.20;;;28.30;44.50;;;;;;5091066;28;20047;-70
2021/05/23 11:25:21;;;;;;;12.23;2.75;;;28.20;44.70;;;;;;5090950;28;20502;-70
2021/05/23 11:28:26;;;;;;;15.75;2.60;;;28.10;45.10;;;;;;5090912;28;20043;-69
2021/05/23 11:31:38;;;;;;;12.65;3.65;;;28.10;46.10;;;;;;5090829;28;20050;-69
2021/05/23 11:34:45;;;;;;;8.98;3.80;;;28.00;45.90;;;;;;5090897;28;20039;-69
2021/05/23 11:37:53;;;;;;;8.23;3.05;;;28.00;46.60;;;;;;5090123;28;20055;-69
2021/05/23 11:40:57;;;;;;;9.45;2.70;;;27.90;45.50;;;;;;5091101;28;20043;-68
2021/05/23 11:44:03;;;;;;;11.68;3.10;;;27.80;46.00;;;;;;5090923;28;20063;-68
2021/05/23 11:47:08;;;;;;;6.55;2.47;;;27.80;45.50;;;;;;5090721;28;20051;-68
2021/05/23 11:50:28;;;;;;;8.57;2.70;;;27.80;46.20;;;;;;5090594;28;20051;-69
2021/05/23 11:53:40;;;;;;;11.50;3.23;;;27.50;45.50;;;;;;5090919;28;20114;-68
2021/05/23 11:56:44;;;;;;;11.65;4.07;;;27.40;46.40;;;;;;5090850;28;20062;-70
2021/05/23 11:59:48;;;;;;;10.35;4.10;;;27.40;46.40;;;;;;5090801;28;20368;-69
2021/05/23 12:03:00;;;;;;;13.38;3.08;;;27.40;46.60;;;;;;5090770;28;20051;-68
2021/05/23 12:06:04;;;;;;;8.75;2.67;;;27.30;46.80;;;;;;5090880;28;20051;-69
2021/05/23 12:09:37;;;;;;;13.45;2.90;;;27.30;46.90;;;;;;5091166;28;20063;-69
2021/05/23 12:12:48;;;;;;;8.73;2.83;;;27.20;46.80;;;;;;5093868;28;20399;-69
2021/05/23 12:15:57;;;;;;;10.63;3.58;;;27.20;46.70;;;;;;5094820;28;20419;-69
2021/05/23 12:19:02;;;;;;;12.23;4.95;;;27.10;46.60;;;;;;5094550;28;20054;-69
2021/05/23 12:22:06;;;;;;;9.00;2.92;;;27.00;46.20;;;;;;5093790;28;20043;-69
2021/05/23 12:25:14;;;;;;;9.15;3.13;;;27.00;46.30;;;;;;5094864;28;20051;-69
2021/05/23 12:28:18;;;;;;;5.32;2.10;;;27.00;46.90;;;;;;5094581;28;20043;-69
2021/05/23 12:31:23;;;;;;;13.73;2.72;;;27.00;47.60;;;;;;5094525;28;20043;-68
2021/05/23 12:34:27;;;;;;;15.93;3.20;;;27.00;46.80;;;;;;5094739;28;20491;-70
2021/05/23 12:37:31;;;;;;;15.50;3.58;;;26.90;47.40;;;;;;5094324;28;20403;-69
2021/05/23 12:40:41;;;;;;;7.53;3.10;;;26.90;47.80;;;;;;5094170;28;20035;-68
2021/05/23 12:43:45;;;;;;;16.15;2.90;;;26.80;47.80;;;;;;5094153;28;20403;-68
2021/05/23 12:46:52;;;;;;;11.73;2.88;;;26.70;46.70;;;;;;5094366;28;20098;-69
2021/05/23 12:49:59;;;;;;;8.45;2.38;;;26.70;46.60;;;;;;5094596;28;20051;-69
2021/05/23 12:53:04;;;;;;;8.85;2.50;;;26.60;46.50;;;;;;5094842;28;20051;-67
2021/05/23 12:56:28;;;;;;;17.10;3.35;;;26.60;48.70;;;;;;5093866;28;20043;-69
2021/05/23 12:59:43;;;;;;;10.35;2.90;;;26.60;50.30;;;;;;5093163;28;20051;-68
2021/05/23 13:03:02;;;;;;;7.32;2.65;;;26.50;48.70;;;;;;5094222;28;20062;-68
2021/05/23 13:06:06;;;;;;;8.55;2.42;;;26.50;48.60;;;;;;5094516;28;20521;-68
2021/05/23 13:09:10;;;;;;;10.57;3.25;;;26.40;48.90;;;;;;5094122;28;20066;-68
2021/05/23 13:12:21;;;;;;;9.70;2.97;;;26.30;50.60;;;;;;5093653;28;20059;-70
2021/05/23 13:15:29;;;;;;;;;;;26.20;51.80;;;;;;5094718;28;20047;-69
2021/05/23 13:18:33;;;;;;;6.85;2.33;;;26.20;50.40;;;;;;5093659;28;19923;-69
2021/05/23 13:21:37;;;;;;;13.90;2.90;;;26.10;49.60;;;;;;5093426;28;20063;-69
2021/05/23 13:24:44;;;;;;;14.77;2.83;;;26.00;49.60;;;;;;5092919;28;20043;-67
2021/05/23 13:27:50;;;;;;;17.92;3.30;;;26.00;49.90;;;;;;5093088;28;20395;-69
2021/05/23 13:30:54;;;;;;;10.27;4.05;;;26.00;50.00;;;;;;5092887;28;20047;-68
2021/05/23 13:33:59;;;;;;;11.43;3.00;;;26.00;50.50;;;;;;5094032;28;20051;-69
2021/05/23 13:37:03;;;;;;;10.85;2.40;;;26.00;50.60;;;;;;5093249;28;20047;-68
2021/05/23 13:40:08;;;;;;;10.43;2.45;;;26.10;50.10;;;;;;5092960;28;20590;-68
2021/05/23 13:43:12;;;;;;;7.85;1.95;;;26.00;50.10;;;;;;5092413;28;20043;-68
2021/05/23 13:46:16;;;;;;;6.78;1.95;;;26.10;49.70;;;;;;5093327;28;20062;-69
2021/05/23 13:49:21;;;;;;;7.53;1.95;;;26.00;50.30;;;;;;5092733;28;20039;-67
2021/05/23 13:52:24;;;;;;;9.60;2.45;;;26.00;50.50;;;;;;5092813;28;20043;-69
2021/05/23 13:55:30;;;;;;;11.98;2.58;;;26.00;50.30;;;;;;5093354;28;20031;-67
2021/05/23 13:58:34;;;;;;;14.45;2.67;;;25.90;50.20;;;;;;5092572;28;20047;-69
2021/05/23 14:01:45;;;;;;;11.27;2.20;;;25.80;50.30;;;;;;5092854;28;20031;-68
2021/05/23 14:04:50;;;;;;;10.48;2.08;;;25.80;50.30;;;;;;5092502;28;20047;-68
2021/05/23 14:07:54;;;;;;;6.93;1.70;;;25.80;50.70;;;;;;5092888;28;20039;-70
2021/05/23 14:11:07;;;;;;;9.02;1.80;;;25.80;51.00;;;;;;5094987;22;20061;-69
2021/05/23 14:14:12;;;;;;;15.27;2.45;;;25.80;51.10;;;;;;5033983;28;20135;-68
2021/05/23 14:17:16;;;;;;;14.05;2.60;;;25.80;50.90;;;;;;5034697;28;20052;-68
2021/05/23 14:20:25;;;;;;;9.52;2.03;;;25.90;50.80;;;;;;5034342;28;20040;-67
2021/05/23 14:23:30;;;;;;;6.75;1.67;;;25.80;51.00;;;;;;5034297;28;20048;-68
2021/05/23 14:26:34;;;;;;;11.82;2.28;;;25.80;51.50;;;;;;5033773;28;20044;-67
2021/05/23 14:29:38;;;;;;;10.68;2.33;;;25.90;51.90;;;;;;5033184;28;20049;-68
2021/05/23 14:32:43;;;;;;;16.10;2.40;;;25.80;51.70;;;;;;5033690;28;20064;-67
2021/05/23 14:35:48;;;;;;;9.57;2.00;;;25.80;51.70;;;;;;5034064;28;20048;-67
2021/05/23 14:38:54;;;;;;;12.52;1.85;;;25.90;52.00;;;;;;5033091;28;20052;-71
2021/05/23 14:41:59;;;;;;;7.97;2.38;;;25.90;51.90;;;;;;5033993;28;20037;-67
2021/05/23 14:45:04;;;;;;;10.48;2.15;;;26.00;51.70;;;;;;5034130;28;20050;-68
2021/05/23 14:48:09;;;;;;;13.75;2.22;;;26.00;51.80;;;;;;5033803;28;20041;-67
2021/05/23 14:51:14;;;;;;;13.18;2.40;;;26.00;50.90;;;;;;5033618;28;20040;-71
2021/05/23 14:54:18;;;;;;;14.07;2.42;;;26.00;51.50;;;;;;5032774;28;20498;-66
2021/05/23 14:57:23;;;;;;;7.70;1.60;;;26.00;51.70;;;;;;5033698;28;20045;-67
2021/05/23 15:00:27;;;;;;;6.13;2.00;;;26.00;51.70;;;;;;5034067;28;20049;-67
2021/05/23 15:03:34;;;;;;;10.95;2.50;;;26.00;52.00;;;;;;5033129;28;20037;-67
2021/05/23 15:06:37;;;;;;;8.65;1.98;;;26.00;52.20;;;;;;5033905;28;20068;-72
2021/05/23 15:09:44;;;;;;;9.05;2.30;;;26.00;52.70;;;;;;5033739;28;20376;-69
2021/05/23 15:12:48;;;;;;;12.98;2.15;;;26.00;52.90;;;;;;5033146;28;20064;-67
2021/05/23 15:15:52;;;;;;;10.32;2.53;;;26.00;52.90;;;;;;5033837;28;20041;-69
2021/05/23 15:18:56;;;;;;;10.18;2.10;;;26.00;52.90;;;;;;5033464;28;20040;-67
2021/05/23 15:22:00;;;;;;;10.70;2.22;;;26.00;53.00;;;;;;5033861;28;20048;-67
2021/05/23 15:25:05;;;;;;;12.60;2.38;;;25.90;52.60;;;;;;5034137;28;20039;-67
2021/05/23 15:31:33;;;;;;;14.77;2.42;;;25.90;53.00;;;;;;5033725;28;20056;-67
2021/05/23 15:34:37;;;;;;;10.73;2.60;;;25.80;52.80;;;;;;5033956;28;20050;-68
2021/05/23 15:37:42;;;;;;;10.00;2.55;;;25.80;53.20;;;;;;5033663;28;20060;-66
2021/05/23 15:40:46;;;;;;;16.13;2.63;;;25.80;53.80;;;;;;5033325;28;20044;-67
2021/05/23 15:43:50;;;;;;;9.80;2.28;;;25.80;53.60;;;;;;5034503;28;20045;-67
2021/05/23 15:46:54;;;;;;;7.28;1.80;;;25.80;54.00;;;;;;5037380;28;20049;-67
2021/05/23 15:49:58;;;;;;;10.75;2.63;;;25.80;53.90;;;;;;5037485;28;20044;-67
2021/05/23 15:53:03;;;;;;;10.85;2.40;;;25.80;53.80;;;;;;5036347;28;20040;-67
2021/05/23 15:56:07;;;;;;;8.93;2.30;;;25.80;53.40;;;;;;5037296;28;20060;-66
2021/05/23 15:59:11;;;;;;;7.50;2.13;;;25.80;53.60;;;;;;5037632;28;20048;-66
2021/05/23 16:02:15;;;;;;;6.53;1.80;;;25.80;53.90;;;;;;5037105;28;20037;-66
2021/05/23 16:05:20;;;;;;;15.25;2.42;;;25.80;53.90;;;;;;5037184;28;20052;-67